sensor_id;sensor_type;location;lat;lon;timestamp;P1;durP1;ratioP1;P2;durP2;ratioP2
62106;SDS011;48087;32.600;-97.100;2022-09-09T00:29:33;23;;;16;;
62106;SDS011;48087;32.600;-97.100;2022-09-09T00:52:05;23;;;16;;
62106;SDS011;48087;32.600;-97.100;2022-09-09T01:14:38;15;;;14;;
62106;SDS011;48087;32.600;-97.100;2022-09-09T01:37:01;20;;;15;;
62106;SDS011;48087;32.600;-97.100;2022-09-09T01:59:35;20;;;15;;
62106;SDS011;48087;32.600;-97.100;2022-09-09T02:21:59;20;;;15;;
62106;SDS011;48087;32.600;-97.100;2022-09-09T02:45:33;15;;;14;;
62106;SDS011;48087;32.600;-97.100;2022-09-09T03:08:00;15;;;14;;
62106;SDS011;48087;32.600;-97.100;2022-09-09T03:54:01;21;;;16;;
62106;SDS011;48087;32.600;-97.100;2022-09-09T04:16:27;22;;;17;;
62106;SDS011;48087;32.600;-97.100;2022-09-09T04:38:55;22;;;17;;
62106;SDS011;48087;32.600;-97.100;2022-09-09T05:01:23;21;;;16;;
62106;SDS011;48087;32.600;-97.100;2022-09-09T05:23:50;21;;;16;;
62106;SDS011;48087;32.600;-97.100;2022-09-09T05:46:18;21;;;16;;
62106;SDS011;48087;32.600;-97.100;2022-09-09T06:09:49;21;;;16;;
62106;SDS011;48087;32.600;-97.100;2022-09-09T06:32:16;21;;;16;;
62106;SDS011;48087;32.600;-97.100;2022-09-09T06:54:43;22;;;17;;
62106;SDS011;48087;32.600;-97.100;2022-09-09T07:17:10;22;;;17;;
62106;SDS011;48087;32.600;-97.100;2022-09-09T07:39:37;22;;;17;;
62106;SDS011;48087;32.600;-97.100;2022-09-09T08:02:04;23;;;17;;
62106;SDS011;48087;32.600;-97.100;2022-09-09T08:24:30;23;;;17;;
62106;SDS011;48087;32.600;-97.100;2022-09-09T08:46:57;23;;;17;;
62106;SDS011;48087;32.600;-97.100;2022-09-09T09:09:23;22;;;17;;
62106;SDS011;48087;32.600;-97.100;2022-09-09T09:32:53;21;;;16;;
62106;SDS011;48087;32.600;-97.100;2022-09-09T09:55:18;22;;;17;;
62106;SDS011;48087;32.600;-97.100;2022-09-09T10:17:47;25;;;19;;
62106;SDS011;48087;32.600;-97.100;2022-09-09T10:40:15;22;;;17;;
62106;SDS011;48087;32.600;-97.100;2022-09-09T11:02:35;24;;;18;;
62106;SDS011;48087;32.600;-97.100;2022-09-09T11:25:01;26;;;20;;
62106;SDS011;48087;32.600;-97.100;2022-09-09T11:47:26;26;;;20;;
62106;SDS011;48087;32.600;-97.100;2022-09-09T12:10:55;24;;;19;;
62106;SDS011;48087;32.600;-97.100;2022-09-09T12:33:19;25;;;19;;
62106;SDS011;48087;32.600;-97.100;2022-09-09T12:55:48;25;;;19;;
62106;SDS011;48087;32.600;-97.100;2022-09-09T13:18:11;26;;;20;;
62106;SDS011;48087;32.600;-97.100;2022-09-09T13:40:37;29;;;22;;
62106;SDS011;48087;32.600;-97.100;2022-09-09T14:03:02;25;;;19;;
62106;SDS011;48087;32.600;-97.100;2022-09-09T14:26:35;21;;;16;;
62106;SDS011;48087;32.600;-97.100;2022-09-09T14:49:06;22;;;16;;
62106;SDS011;48087;32.600;-97.100;2022-09-09T15:11:35;23;;;16;;
62106;SDS011;48087;32.600;-97.100;2022-09-09T15:34:04;22;;;15;;
62106;SDS011;48087;32.600;-97.100;2022-09-09T15:35:12;23;;;16;;
62106;SDS011;48087;32.600;-97.100;2022-09-09T15:57:43;14;;;13;;
62106;SDS011;48087;32.600;-97.100;2022-09-09T16:20:19;13;;;12;;
62106;SDS011;48087;32.600;-97.100;2022-09-09T16:42:51;15;;;14;;
62106;SDS011;48087;32.600;-97.100;2022-09-09T16:44:00;23;;;15;;
62106;SDS011;48087;32.600;-97.100;2022-09-09T17:06:34;15;;;14;;
62106;SDS011;48087;32.600;-97.100;2022-09-09T17:07:42;23;;;15;;
62106;SDS011;48087;32.600;-97.100;2022-09-09T17:30:15;15;;;14;;
62106;SDS011;48087;32.600;-97.100;2022-09-09T17:31:24;22;;;15;;
62106;SDS011;48087;32.600;-97.100;2022-09-09T17:53:56;14;;;13;;
62106;SDS011;48087;32.600;-97.100;2022-09-09T18:16:28;13;;;12;;
62106;SDS011;48087;32.600;-97.100;2022-09-09T18:39:00;13;;;12;;
62106;SDS011;48087;32.600;-97.100;2022-09-09T19:01:31;15;;;14;;
62106;SDS011;48087;32.600;-97.100;2022-09-09T19:02:40;14;;;13;;
62106;SDS011;48087;32.600;-97.100;2022-09-09T19:25:10;14;;;13;;
62106;SDS011;48087;32.600;-97.100;2022-09-09T19:47:41;15;;;14;;
62106;SDS011;48087;32.600;-97.100;2022-09-09T20:10:11;13;;;12;;
62106;SDS011;48087;32.600;-97.100;2022-09-09T20:32:42;14;;;13;;
62106;SDS011;48087;32.600;-97.100;2022-09-09T20:55:13;13;;;12;;
62106;SDS011;48087;32.600;-97.100;2022-09-09T21:17:43;12;;;11;;
62106;SDS011;48087;32.600;-97.100;2022-09-09T21:18:52;12;;;11;;
62106;SDS011;48087;32.600;-97.100;2022-09-09T21:41:22;13;;;12;;
62106;SDS011;48087;32.600;-97.100;2022-09-09T22:03:52;14;;;13;;
62106;SDS011;48087;32.600;-97.100;2022-09-09T22:26:21;13;;;12;;
62106;SDS011;48087;32.600;-97.100;2022-09-09T22:48:49;14;;;13;;
62106;SDS011;48087;32.600;-97.100;2022-09-09T23:11:17;27;;;19;;
62106;SDS011;48087;32.600;-97.100;2022-09-09T23:33:44;15;;;14;;
62106;SDS011;48087;32.600;-97.100;2022-09-09T23:56:11;14;;;13;;
62106;SDS011;48087;32.600;-97.100;2022-09-09T23:57:21;14;;;13;;
